sensor_id;sensor_type;location;lat;lon;timestamp;pressure;altitude;pressure_sealevel;temperature;humidity
70943;BME280;59154;51.970;5.650;2023-03-20T00:00:05;101900;;;11.56911;85.0
70943;BME280;59154;51.970;5.650;2023-03-20T00:05:14;101900;;;11.56911;84.6
70943;BME280;59154;51.970;5.650;2023-03-20T00:10:02;101900;;;11.55385;84.3
70943;BME280;59154;51.970;5.650;2023-03-20T00:15:15;101900;;;11.42162;84.1
70943;BME280;59154;51.970;5.650;2023-03-20T00:20:04;101900;;;11.45214;83.7
70943;BME280;59154;51.970;5.650;2023-03-20T00:25:03;101900;;;11.48265;83.9
70943;BME280;59154;51.970;5.650;2023-03-20T00:30:07;101900;;;11.4674;84.1
70943;BME280;59154;51.970;5.650;2023-03-20T00:35:16;101900;;;11.48774;84.0
70943;BME280;59154;51.970;5.650;2023-03-20T00:40:04;101900;;;11.54877;83.9
70943;BME280;59154;51.970;5.650;2023-03-20T00:45:03;101900;;;11.54368;84.1
70943;BME280;59154;51.970;5.650;2023-03-20T00:50:09;101900;;;11.53351;84.0
70943;BME280;59154;51.970;5.650;2023-03-20T00:55:03;101900;;;11.70642;83.8
70943;BME280;59154;51.970;5.650;2023-03-20T01:00:07;101800;;;11.65048;83.9
70943;BME280;59154;51.970;5.650;2023-03-20T01:05:03;101900;;;11.52334;83.8
70943;BME280;59154;51.970;5.650;2023-03-20T01:10:03;101900;;;11.52334;83.5
70943;BME280;59154;51.970;5.650;2023-03-20T01:15:03;101900;;;11.52842;83.6
70943;BME280;59154;51.970;5.650;2023-03-20T01:20:08;101900;;;11.45722;83.8
70943;BME280;59154;51.970;5.650;2023-03-20T01:25:03;101900;;;11.36568;83.7
70943;BME280;59154;51.970;5.650;2023-03-20T01:30:13;101900;;;11.26397;83.8
70943;BME280;59154;51.970;5.650;2023-03-20T01:35:03;101900;;;11.10123;82.0
70943;BME280;59154;51.970;5.650;2023-03-20T01:40:15;101900;;;11.0758;79.8
70943;BME280;59154;51.970;5.650;2023-03-20T01:45:12;101900;;;11.12666;78.3
70943;BME280;59154;51.970;5.650;2023-03-20T01:50:21;101900;;;11.17751;78.8
70943;BME280;59154;51.970;5.650;2023-03-20T01:55:02;101900;;;11.07072;78.7
70943;BME280;59154;51.970;5.650;2023-03-20T02:00:06;101900;;;11.12666;78.5
70943;BME280;59154;51.970;5.650;2023-03-20T02:05:05;101900;;;11.1114;77.9
70943;BME280;59154;51.970;5.650;2023-03-20T02:10:03;101900;;;11.13683;77.8
70943;BME280;59154;51.970;5.650;2023-03-20T02:15:02;101900;;;11.17243;76.9
70943;BME280;59154;51.970;5.650;2023-03-20T02:20:13;101900;;;11.1826;76.5
70943;BME280;59154;51.970;5.650;2023-03-20T02:25:53;101900;;;11.19786;77.2
70943;BME280;59154;51.970;5.650;2023-03-20T02:30:42;101900;;;11.147;77.2
70943;BME280;59154;51.970;5.650;2023-03-20T02:35:23;101900;;;11.16734;77.6
70943;BME280;59154;51.970;5.650;2023-03-20T02:40:10;101900;;;11.10123;78.6
70943;BME280;59154;51.970;5.650;2023-03-20T02:45:11;101900;;;11.0402;79.5
70943;BME280;59154;51.970;5.650;2023-03-20T02:50:12;101900;;;11.0758;79.8
70943;BME280;59154;51.970;5.650;2023-03-20T02:55:12;101900;;;11.05546;80.1
70943;BME280;59154;51.970;5.650;2023-03-20T03:00:08;101900;;;11.04529;80.1
70943;BME280;59154;51.970;5.650;2023-03-20T03:05:07;101900;;;11.04529;80.2
70943;BME280;59154;51.970;5.650;2023-03-20T03:10:06;101900;;;11.01986;80.2
70943;BME280;59154;51.970;5.650;2023-03-20T03:15:06;101900;;;10.9334;80.5
70943;BME280;59154;51.970;5.650;2023-03-20T03:20:07;101900;;;10.91306;80.4
70943;BME280;59154;51.970;5.650;2023-03-20T03:25:03;101800;;;10.86221;81.4
70943;BME280;59154;51.970;5.650;2023-03-20T03:30:06;101800;;;10.76049;81.9
70943;BME280;59154;51.970;5.650;2023-03-20T03:35:04;101800;;;10.63335;81.7
70943;BME280;59154;51.970;5.650;2023-03-20T03:40:13;101800;;;10.63844;81.2
70943;BME280;59154;51.970;5.650;2023-03-20T03:45:07;101800;;;10.59267;81.1
70943;BME280;59154;51.970;5.650;2023-03-20T03:50:07;101800;;;10.46553;81.4
70943;BME280;59154;51.970;5.650;2023-03-20T03:55:06;101800;;;10.47061;81.5
70943;BME280;59154;51.970;5.650;2023-03-20T04:00:06;101800;;;10.37907;81.6
70943;BME280;59154;51.970;5.650;2023-03-20T04:05:05;101800;;;10.20108;82.1
70943;BME280;59154;51.970;5.650;2023-03-20T04:10:03;101800;;;10.18074;82.2
70943;BME280;59154;51.970;5.650;2023-03-20T04:15:03;101800;;;10.0892;82.6
70943;BME280;59154;51.970;5.650;2023-03-20T04:20:04;101800;;;10.09937;82.8
70943;BME280;59154;51.970;5.650;2023-03-20T04:25:03;101800;;;9.99766;83.2
70943;BME280;59154;51.970;5.650;2023-03-20T04:30:03;101800;;;9.85526;83.5
70943;BME280;59154;51.970;5.650;2023-03-20T04:35:03;101800;;;9.92137;83.4
70943;BME280;59154;51.970;5.650;2023-03-20T04:40:04;101800;;;9.96206;83.2
70943;BME280;59154;51.970;5.650;2023-03-20T04:45:03;101800;;;9.9468;82.9
70943;BME280;59154;51.970;5.650;2023-03-20T04:50:04;101800;;;9.95697;82.7
70943;BME280;59154;51.970;5.650;2023-03-20T04:55:03;101800;;;9.94171;82.4
70943;BME280;59154;51.970;5.650;2023-03-20T05:00:05;101800;;;9.82475;82.2
70943;BME280;59154;51.970;5.650;2023-03-20T05:05:03;101800;;;9.92137;82.1
70943;BME280;59154;51.970;5.650;2023-03-20T05:10:04;101800;;;9.80949;82.0
70943;BME280;59154;51.970;5.650;2023-03-20T05:15:02;101800;;;9.90612;81.8
70943;BME280;59154;51.970;5.650;2023-03-20T05:20:04;101800;;;9.82983;82.3
70943;BME280;59154;51.970;5.650;2023-03-20T05:25:03;101800;;;9.82475;82.1
70943;BME280;59154;51.970;5.650;2023-03-20T05:30:03;101800;;;9.85526;81.8
70943;BME280;59154;51.970;5.650;2023-03-20T05:35:02;101800;;;9.8044;81.9
70943;BME280;59154;51.970;5.650;2023-03-20T05:40:05;101800;;;9.77898;81.8
70943;BME280;59154;51.970;5.650;2023-03-20T05:45:03;101800;;;9.81458;81.9
70943;BME280;59154;51.970;5.650;2023-03-20T05:50:03;101800;;;9.79423;82.0
70943;BME280;59154;51.970;5.650;2023-03-20T05:55:02;101800;;;9.78406;81.7
70943;BME280;59154;51.970;5.650;2023-03-20T06:00:04;101800;;;9.78406;81.8
70943;BME280;59154;51.970;5.650;2023-03-20T06:05:03;101800;;;9.78406;81.8
70943;BME280;59154;51.970;5.650;2023-03-20T06:10:03;101800;;;9.90612;81.4
70943;BME280;59154;51.970;5.650;2023-03-20T06:15:03;101800;;;9.88069;81.4
70943;BME280;59154;51.970;5.650;2023-03-20T06:20:04;101800;;;9.96206;81.2
70943;BME280;59154;51.970;5.650;2023-03-20T06:25:02;101800;;;10.08411;81.0
70943;BME280;59154;51.970;5.650;2023-03-20T06:30:05;101800;;;10.03834;81.1
70943;BME280;59154;51.970;5.650;2023-03-20T06:35:02;101800;;;10.02817;81.2
70943;BME280;59154;51.970;5.650;2023-03-20T06:40:03;101800;;;10.09937;81.2
70943;BME280;59154;51.970;5.650;2023-03-20T06:45:03;101800;;;10.12988;81.2
70943;BME280;59154;51.970;5.650;2023-03-20T06:50:04;101800;;;10.00274;81.7
70943;BME280;59154;51.970;5.650;2023-03-20T06:55:03;101800;;;10.01291;81.7
70943;BME280;59154;51.970;5.650;2023-03-20T07:00:04;101800;;;10.00274;81.6
70943;BME280;59154;51.970;5.650;2023-03-20T07:05:02;101900;;;10.09937;81.1
70943;BME280;59154;51.970;5.650;2023-03-20T07:10:04;101900;;;10.10954;81.1
70943;BME280;59154;51.970;5.650;2023-03-20T07:15:04;101900;;;10.10954;81.1
70943;BME280;59154;51.970;5.650;2023-03-20T07:20:04;101900;;;10.10954;81.1
70943;BME280;59154;51.970;5.650;2023-03-20T07:25:04;101900;;;10.17565;81.0
70943;BME280;59154;51.970;5.650;2023-03-20T07:30:03;101900;;;10.17056;81.0
70943;BME280;59154;51.970;5.650;2023-03-20T07:35:03;101900;;;10.19091;81.0
70943;BME280;59154;51.970;5.650;2023-03-20T07:40:04;101900;;;10.12988;81.0
70943;BME280;59154;51.970;5.650;2023-03-20T07:45:04;101900;;;10.25193;80.3
70943;BME280;59154;51.970;5.650;2023-03-20T07:50:03;101900;;;10.26211;80.3
70943;BME280;59154;51.970;5.650;2023-03-20T07:55:03;101900;;;10.32822;80.3
70943;BME280;59154;51.970;5.650;2023-03-20T08:00:04;101900;;;10.2977;80.4
70943;BME280;59154;51.970;5.650;2023-03-20T08:05:03;101900;;;10.40959;80.1
70943;BME280;59154;51.970;5.650;2023-03-20T08:10:04;101900;;;10.49604;79.5
70943;BME280;59154;51.970;5.650;2023-03-20T08:15:03;101900;;;10.63335;78.8
70943;BME280;59154;51.970;5.650;2023-03-20T08:20:04;101900;;;10.61301;78.9
70943;BME280;59154;51.970;5.650;2023-03-20T08:25:03;101900;;;10.78084;78.1
70943;BME280;59154;51.970;5.650;2023-03-20T08:30:04;101900;;;10.92323;77.8
70943;BME280;59154;51.970;5.650;2023-03-20T08:35:03;101900;;;11.03512;77.1
70943;BME280;59154;51.970;5.650;2023-03-20T08:40:04;101900;;;11.11649;76.5
70943;BME280;59154;51.970;5.650;2023-03-20T08:45:03;101800;;;11.45214;74.8
70943;BME280;59154;51.970;5.650;2023-03-20T08:50:04;101800;;;11.49282;74.5
70943;BME280;59154;51.970;5.650;2023-03-20T08:55:02;101800;;;11.51317;73.8
70943;BME280;59154;51.970;5.650;2023-03-20T09:00:03;101800;;;11.57419;73.6
70943;BME280;59154;51.970;5.650;2023-03-20T09:05:02;101800;;;11.82339;72.8
70943;BME280;59154;51.970;5.650;2023-03-20T09:10:04;101800;;;11.88951;72.7
70943;BME280;59154;51.970;5.650;2023-03-20T09:15:04;101800;;;11.87425;72.1
70943;BME280;59154;51.970;5.650;2023-03-20T09:20:04;101800;;;11.78271;73.4
70943;BME280;59154;51.970;5.650;2023-03-20T09:25:03;101900;;;11.77762;75.0
70943;BME280;59154;51.970;5.650;2023-03-20T09:30:04;101900;;;11.64539;75.8
70943;BME280;59154;51.970;5.650;2023-03-20T09:35:03;101900;;;11.69625;76.2
70943;BME280;59154;51.970;5.650;2023-03-20T09:40:04;101900;;;11.80305;77.2
70943;BME280;59154;51.970;5.650;2023-03-20T09:45:10;101900;;;11.66065;77.0
70943;BME280;59154;51.970;5.650;2023-03-20T09:50:11;101900;;;11.90985;77.1
70943;BME280;59154;51.970;5.650;2023-03-20T09:55:07;101900;;;11.82339;76.2
70943;BME280;59154;51.970;5.650;2023-03-20T10:00:06;101900;;;11.92002;76.4
70943;BME280;59154;51.970;5.650;2023-03-20T10:05:03;101900;;;12.57607;76.8
70943;BME280;59154;51.970;5.650;2023-03-20T10:10:03;101900;;;12.40316;75.5
70943;BME280;59154;51.970;5.650;2023-03-20T10:15:06;101900;;;12.5303;75.3
70943;BME280;59154;51.970;5.650;2023-03-20T10:20:12;101900;;;12.45402;75.4
70943;BME280;59154;51.970;5.650;2023-03-20T10:25:06;101800;;;12.5303;73.6
70943;BME280;59154;51.970;5.650;2023-03-20T10:30:19;101800;;;12.66253;73.5
70943;BME280;59154;51.970;5.650;2023-03-20T10:35:14;101800;;;12.8151;72.2
70943;BME280;59154;51.970;5.650;2023-03-20T10:40:19;101800;;;12.98802;72.7
70943;BME280;59154;51.970;5.650;2023-03-20T10:45:06;101800;;;12.89647;74.3
70943;BME280;59154;51.970;5.650;2023-03-20T10:50:06;101800;;;12.64727;73.0
70943;BME280;59154;51.970;5.650;2023-03-20T10:55:05;101800;;;12.60659;73.8
70943;BME280;59154;51.970;5.650;2023-03-20T11:00:04;101800;;;12.4947;73.9
70943;BME280;59154;51.970;5.650;2023-03-20T11:05:10;101800;;;12.47945;73.8
70943;BME280;59154;51.970;5.650;2023-03-20T11:10:13;101800;;;12.65236;74.9
70943;BME280;59154;51.970;5.650;2023-03-20T11:15:14;101800;;;12.44385;75.4
70943;BME280;59154;51.970;5.650;2023-03-20T11:20:04;101800;;;12.20482;75.0
70943;BME280;59154;51.970;5.650;2023-03-20T11:25:02;101800;;;12.62185;75.4
70943;BME280;59154;51.970;5.650;2023-03-20T11:30:05;101800;;;12.54047;75.6
70943;BME280;59154;51.970;5.650;2023-03-20T11:35:15;101800;;;12.76425;75.6
70943;BME280;59154;51.970;5.650;2023-03-20T11:40:13;101800;;;12.73373;74.1
70943;BME280;59154;51.970;5.650;2023-03-20T11:45:05;101800;;;12.67779;73.7
70943;BME280;59154;51.970;5.650;2023-03-20T11:50:05;101800;;;12.90665;74.6
70943;BME280;59154;51.970;5.650;2023-03-20T11:55:05;101800;;;13.00327;74.9
70943;BME280;59154;51.970;5.650;2023-03-20T12:00:06;101800;;;12.75407;74.4
70943;BME280;59154;51.970;5.650;2023-03-20T12:05:19;101800;;;12.45402;75.3
70943;BME280;59154;51.970;5.650;2023-03-20T12:10:06;101800;;;12.48962;76.1
70943;BME280;59154;51.970;5.650;2023-03-20T12:15:12;101800;;;12.3879;75.7
70943;BME280;59154;51.970;5.650;2023-03-20T12:20:11;101800;;;12.42859;76.8
70943;BME280;59154;51.970;5.650;2023-03-20T12:25:08;101800;;;12.34722;77.2
70943;BME280;59154;51.970;5.650;2023-03-20T12:30:05;101800;;;12.49979;77.6
70943;BME280;59154;51.970;5.650;2023-03-20T12:35:09;101800;;;12.67779;77.5
70943;BME280;59154;51.970;5.650;2023-03-20T12:40:04;101800;;;12.76933;77.1
70943;BME280;59154;51.970;5.650;2023-03-20T12:45:09;101800;;;12.9219;76.2
70943;BME280;59154;51.970;5.650;2023-03-20T12:50:09;101800;;;12.82019;76.4
70943;BME280;59154;51.970;5.650;2023-03-20T12:55:18;101800;;;12.97785;77.5
70943;BME280;59154;51.970;5.650;2023-03-20T13:00:15;101800;;;12.8863;77.0
70943;BME280;59154;51.970;5.650;2023-03-20T13:05:12;101800;;;12.86087;77.1
70943;BME280;59154;51.970;5.650;2023-03-20T13:10:13;101700;;;12.90665;77.3
70943;BME280;59154;51.970;5.650;2023-03-20T13:15:17;101700;;;12.52013;78.0
70943;BME280;59154;51.970;5.650;2023-03-20T13:20:17;101700;;;12.90665;77.1
70943;BME280;59154;51.970;5.650;2023-03-20T13:25:05;101700;;;12.57099;77.6
70943;BME280;59154;51.970;5.650;2023-03-20T13:30:08;101700;;;12.59133;78.0
70943;BME280;59154;51.970;5.650;2023-03-20T13:35:14;101700;;;12.62185;78.4
70943;BME280;59154;51.970;5.650;2023-03-20T13:40:11;101700;;;12.63202;78.1
70943;BME280;59154;51.970;5.650;2023-03-20T13:45:05;101700;;;12.81002;78.6
70943;BME280;59154;51.970;5.650;2023-03-20T13:50:24;101700;;;12.71339;78.6
70943;BME280;59154;51.970;5.650;2023-03-20T13:55:15;101700;;;12.64727;79.4
70943;BME280;59154;51.970;5.650;2023-03-20T14:00:09;101700;;;12.64219;79.8
70943;BME280;59154;51.970;5.650;2023-03-20T14:05:08;101700;;;12.91173;79.8
70943;BME280;59154;51.970;5.650;2023-03-20T14:10:37;101700;;;12.87613;79.6
70943;BME280;59154;51.970;5.650;2023-03-20T14:15:02;101700;;;12.8151;80.8
70943;BME280;59154;51.970;5.650;2023-03-20T14:20:11;101700;;;12.73373;80.7
70943;BME280;59154;51.970;5.650;2023-03-20T14:25:05;101700;;;12.72865;81.8
70943;BME280;59154;51.970;5.650;2023-03-20T14:30:37;101700;;;12.79476;81.8
70943;BME280;59154;51.970;5.650;2023-03-20T14:35:23;101700;;;12.72356;82.1
70943;BME280;59154;51.970;5.650;2023-03-20T14:40:13;101700;;;12.73882;82.2
70943;BME280;59154;51.970;5.650;2023-03-20T14:45:29;101700;;;12.77442;81.7
70943;BME280;59154;51.970;5.650;2023-03-20T14:50:08;101700;;;12.59133;82.4
70943;BME280;59154;51.970;5.650;2023-03-20T14:55:49;101700;;;12.67779;82.0
70943;BME280;59154;51.970;5.650;2023-03-20T15:00:04;101700;;;12.82019;82.3
70943;BME280;59154;51.970;5.650;2023-03-20T15:05:03;101700;;;12.8151;82.4
70943;BME280;59154;51.970;5.650;2023-03-20T15:10:04;101700;;;12.55573;82.2
70943;BME280;59154;51.970;5.650;2023-03-20T15:15:05;101700;;;12.52522;82.1
70943;BME280;59154;51.970;5.650;2023-03-20T15:20:09;101700;;;12.5303;82.7
70943;BME280;59154;51.970;5.650;2023-03-20T15:25:03;101700;;;12.46419;83.8
70943;BME280;59154;51.970;5.650;2023-03-20T15:30:04;101700;;;12.39299;83.7
70943;BME280;59154;51.970;5.650;2023-03-20T15:35:04;101700;;;12.33196;84.4
70943;BME280;59154;51.970;5.650;2023-03-20T15:40:11;101700;;;12.3167;84.4
70943;BME280;59154;51.970;5.650;2023-03-20T15:45:20;101700;;;12.20482;85.1
70943;BME280;59154;51.970;5.650;2023-03-20T15:50:03;101700;;;12.09802;85.6
70943;BME280;59154;51.970;5.650;2023-03-20T15:55:05;101700;;;12.04716;86.0
70943;BME280;59154;51.970;5.650;2023-03-20T16:00:05;101700;;;12.09802;86.2
70943;BME280;59154;51.970;5.650;2023-03-20T16:05:04;101700;;;12.09293;86.4
70943;BME280;59154;51.970;5.650;2023-03-20T16:10:15;101700;;;12.0319;86.4
70943;BME280;59154;51.970;5.650;2023-03-20T16:15:03;101700;;;12.08276;86.1
70943;BME280;59154;51.970;5.650;2023-03-20T16:20:03;101700;;;12.08276;86.3
70943;BME280;59154;51.970;5.650;2023-03-20T16:25:03;101700;;;12.24042;85.4
70943;BME280;59154;51.970;5.650;2023-03-20T16:30:07;101700;;;12.34722;85.3
70943;BME280;59154;51.970;5.650;2023-03-20T16:35:09;101700;;;12.33705;85.1
70943;BME280;59154;51.970;5.650;2023-03-20T16:40:15;101700;;;12.36247;84.8
70943;BME280;59154;51.970;5.650;2023-03-20T16:45:05;101700;;;12.39807;83.8
70943;BME280;59154;51.970;5.650;2023-03-20T16:50:09;101700;;;12.27602;83.9
70943;BME280;59154;51.970;5.650;2023-03-20T16:55:03;101700;;;12.2811;83.3
70943;BME280;59154;51.970;5.650;2023-03-20T17:00:07;101700;;;12.29127;83.1
70943;BME280;59154;51.970;5.650;2023-03-20T17:05:06;101700;;;12.32179;83.6
70943;BME280;59154;51.970;5.650;2023-03-20T17:10:16;101700;;;12.08276;83.7
70943;BME280;59154;51.970;5.650;2023-03-20T17:15:02;101700;;;12.22516;83.9
70943;BME280;59154;51.970;5.650;2023-03-20T17:20:04;101700;;;12.2811;84.1
70943;BME280;59154;51.970;5.650;2023-03-20T17:25:03;101700;;;12.34722;83.5
70943;BME280;59154;51.970;5.650;2023-03-20T17:30:04;101700;;;12.23533;83.4
70943;BME280;59154;51.970;5.650;2023-03-20T17:35:03;101700;;;12.32687;83.3
70943;BME280;59154;51.970;5.650;2023-03-20T17:40:04;101700;;;12.31162;82.9
70943;BME280;59154;51.970;5.650;2023-03-20T17:45:05;101700;;;12.36756;82.8
70943;BME280;59154;51.970;5.650;2023-03-20T17:50:03;101700;;;12.34213;83.2
70943;BME280;59154;51.970;5.650;2023-03-20T17:55:03;101700;;;12.40825;83.0
70943;BME280;59154;51.970;5.650;2023-03-20T18:00:05;101700;;;12.42859;83.3
70943;BME280;59154;51.970;5.650;2023-03-20T18:05:02;101700;;;12.41842;83.2
70943;BME280;59154;51.970;5.650;2023-03-20T18:10:04;101700;;;12.46419;83.4
70943;BME280;59154;51.970;5.650;2023-03-20T18:15:03;101700;;;12.47945;83.0
70943;BME280;59154;51.970;5.650;2023-03-20T18:20:05;101700;;;12.4591;83.3
70943;BME280;59154;51.970;5.650;2023-03-20T18:25:04;101700;;;12.43367;83.8
70943;BME280;59154;51.970;5.650;2023-03-20T18:30:03;101700;;;12.44893;83.7
70943;BME280;59154;51.970;5.650;2023-03-20T18:35:03;101700;;;12.48453;84.0
70943;BME280;59154;51.970;5.650;2023-03-20T18:40:04;101700;;;12.46927;84.4
70943;BME280;59154;51.970;5.650;2023-03-20T18:45:03;101700;;;12.43876;85.3
70943;BME280;59154;51.970;5.650;2023-03-20T18:50:04;101700;;;12.56082;85.3
70943;BME280;59154;51.970;5.650;2023-03-20T18:55:02;101700;;;12.62185;84.9
70943;BME280;59154;51.970;5.650;2023-03-20T19:00:14;101700;;;12.49979;85.0
70943;BME280;59154;51.970;5.650;2023-03-20T19:05:03;101700;;;12.59133;84.9
70943;BME280;59154;51.970;5.650;2023-03-20T19:10:04;101700;;;12.65236;84.7
70943;BME280;59154;51.970;5.650;2023-03-20T19:15:03;101700;;;12.51505;84.9
70943;BME280;59154;51.970;5.650;2023-03-20T19:20:04;101700;;;12.63202;84.7
70943;BME280;59154;51.970;5.650;2023-03-20T19:25:02;101700;;;12.65745;84.8
70943;BME280;59154;51.970;5.650;2023-03-20T19:30:03;101700;;;12.69813;84.6
70943;BME280;59154;51.970;5.650;2023-03-20T19:35:03;101700;;;12.57607;85.2
70943;BME280;59154;51.970;5.650;2023-03-20T19:40:04;101700;;;12.58116;85.6
70943;BME280;59154;51.970;5.650;2023-03-20T19:45:02;101700;;;12.6015;86.3
70943;BME280;59154;51.970;5.650;2023-03-20T19:50:03;101700;;;12.72356;85.9
70943;BME280;59154;51.970;5.650;2023-03-20T19:55:03;101700;;;12.65236;86.8
70943;BME280;59154;51.970;5.650;2023-03-20T20:00:04;101600;;;12.69305;86.9
70943;BME280;59154;51.970;5.650;2023-03-20T20:05:02;101600;;;12.84053;86.8
70943;BME280;59154;51.970;5.650;2023-03-20T20:10:03;101600;;;12.85579;87.0
70943;BME280;59154;51.970;5.650;2023-03-20T20:15:03;101600;;;12.8863;87.2
70943;BME280;59154;51.970;5.650;2023-03-20T20:20:04;101600;;;12.64727;88.2
70943;BME280;59154;51.970;5.650;2023-03-20T20:25:03;101600;;;12.76425;88.3
70943;BME280;59154;51.970;5.650;2023-03-20T20:30:05;101600;;;12.75916;88.8
70943;BME280;59154;51.970;5.650;2023-03-20T20:35:03;101600;;;12.86087;88.4
70943;BME280;59154;51.970;5.650;2023-03-20T20:40:03;101600;;;12.67779;89.5
70943;BME280;59154;51.970;5.650;2023-03-20T20:45:04;101600;;;12.9219;89.1
70943;BME280;59154;51.970;5.650;2023-03-20T20:50:04;101600;;;12.78459;89.5
70943;BME280;59154;51.970;5.650;2023-03-20T20:55:04;101600;;;12.82527;89.4
70943;BME280;59154;51.970;5.650;2023-03-20T21:00:04;101600;;;12.71339;89.9
70943;BME280;59154;51.970;5.650;2023-03-20T21:05:03;101600;;;12.50996;90.9
70943;BME280;59154;51.970;5.650;2023-03-20T21:10:04;101600;;;12.55065;91.0
70943;BME280;59154;51.970;5.650;2023-03-20T21:15:03;101600;;;12.48962;91.1
70943;BME280;59154;51.970;5.650;2023-03-20T21:20:04;101600;;;12.49979;91.2
70943;BME280;59154;51.970;5.650;2023-03-20T21:25:03;101600;;;12.54047;91.4
70943;BME280;59154;51.970;5.650;2023-03-20T21:30:04;101600;;;12.4947;91.3
70943;BME280;59154;51.970;5.650;2023-03-20T21:35:04;101600;;;12.4947;91.4
70943;BME280;59154;51.970;5.650;2023-03-20T21:40:04;101600;;;12.4947;91.5
70943;BME280;59154;51.970;5.650;2023-03-20T21:45:02;101600;;;12.57099;91.2
70943;BME280;59154;51.970;5.650;2023-03-20T21:50:03;101600;;;12.47945;91.5
70943;BME280;59154;51.970;5.650;2023-03-20T21:55:03;101600;;;12.48962;91.6
70943;BME280;59154;51.970;5.650;2023-03-20T22:00:05;101600;;;12.50996;91.3
70943;BME280;59154;51.970;5.650;2023-03-20T22:05:03;101600;;;12.52013;91.2
70943;BME280;59154;51.970;5.650;2023-03-20T22:10:03;101600;;;12.5659;90.9
70943;BME280;59154;51.970;5.650;2023-03-20T22:15:03;101600;;;12.6371;90.5
70943;BME280;59154;51.970;5.650;2023-03-20T22:20:03;101600;;;12.67779;90.2
70943;BME280;59154;51.970;5.650;2023-03-20T22:25:03;101600;;;12.83545;89.3
70943;BME280;59154;51.970;5.650;2023-03-20T22:30:03;101600;;;12.82019;88.9
70943;BME280;59154;51.970;5.650;2023-03-20T22:35:02;101600;;;13.02362;88.4
70943;BME280;59154;51.970;5.650;2023-03-20T22:40:05;101600;;;12.83545;88.8
70943;BME280;59154;51.970;5.650;2023-03-20T22:45:04;101600;;;12.96259;88.1
70943;BME280;59154;51.970;5.650;2023-03-20T22:50:03;101600;;;12.78459;88.7
70943;BME280;59154;51.970;5.650;2023-03-20T22:55:02;101600;;;12.80493;88.6
70943;BME280;59154;51.970;5.650;2023-03-20T23:00:04;101600;;;12.82019;88.4
70943;BME280;59154;51.970;5.650;2023-03-20T23:05:03;101600;;;12.84053;88.4
70943;BME280;59154;51.970;5.650;2023-03-20T23:10:04;101600;;;12.83036;88.2
70943;BME280;59154;51.970;5.650;2023-03-20T23:15:03;101600;;;12.82527;88.2
70943;BME280;59154;51.970;5.650;2023-03-20T23:20:04;101600;;;12.88122;88.1
70943;BME280;59154;51.970;5.650;2023-03-20T23:25:03;101600;;;12.94225;88.2
70943;BME280;59154;51.970;5.650;2023-03-20T23:30:04;101600;;;12.91173;88.6
70943;BME280;59154;51.970;5.650;2023-03-20T23:35:03;101600;;;12.89647;88.7
70943;BME280;59154;51.970;5.650;2023-03-20T23:40:04;101600;;;12.78459;89.3
70943;BME280;59154;51.970;5.650;2023-03-20T23:45:03;101600;;;12.72356;89.6
70943;BME280;59154;51.970;5.650;2023-03-20T23:50:04;101600;;;12.58116;90.1
70943;BME280;59154;51.970;5.650;2023-03-20T23:55:03;101600;;;12.61676;90.0
